Malatya Bolge, Turkey

8:21 AM EEST on June 30, 2015 (GMT +0300)
Erhac Air Base | | Change Station
CLOSE
Current Station
Airport
Location: Malatya,
Elevation: 2785 ft
Nearby Weather Stations

Elev 2785 ft 38.44 °N, 38.09 °E | Updated 31 minutes ago

Clear
Clear
73 °F
Feels Like 73 °F
N
4
Wind Variable Wind from SSE

Today
High -- | Low -- °F
--% Chance of Precip.
Yesterday
High -- | Low -- °F
Precip. -- in
5:06 AM 7:54 PM
Waxing Gibbous, 96% visible
Pressure 29.89 in
Visibility -9999.0 miles
Clouds
Dew Point 52 °F
Humidity 47%
Rainfall 0.00 in
Snow Depth Not available.
UV Not available.
Pollen Not available.
Air Quality Not available.
Flu Activity Not available.
METAR LTAT 300450Z 15003KT CAVOK 23/11 Q1012 NOSIG

More Conditions Fewer Conditions

Pressure 29.89 in
Visibility -9999.0 miles
Clouds
Dew Point 52 °F
Humidity 47%
Rainfall 0.00 in
Snow Depth Not available.
UV Not available.
Pollen Not available.
Air Quality Not available.
Flu Activity Not available.
METAR LTAT 300450Z 15003KT CAVOK 23/11 Q1012 NOSIG

More Conditions Fewer Conditions

10-Day Weather Forecast

×

Almanac

Astronomy

Jun. 30, 2015 Rise Set
Actual Time
Civil Twilight
Nautical Twilight
Astronomical Twilight
Moon
Length of Visible Light
Length of Day
Tomorrow will be .
, % of the Moon is Illuminated

Today's Extremes

Country Highs Country Lows

Community

WunderPhotos

Upload Photos

1,833,970 photos uploaded!

WunderBlogs® & News

Nearby

Air Quality

  Air Quality AQ Index Pollutant
Not available.

Snow Depth

Station Depth Elevation

Earthquake Activity

City Distance Mag. Time & Date
Minimum magnitude displayed is 2.5.

Coastal Water Temperatures

Place Temperature

Stations

Nearby Weather Stations

Station Location Temp. Windchill Dew Point Humidity Wind Precip. Elev Updated Type